sensor_id;sensor_type;location;lat;lon;timestamp;P1;durP1;ratioP1;P2;durP2;ratioP2
14663;SDS011;7419;52.184;5.944;2022-12-18T00:03:15;23.16;;;8.86;;
14663;SDS011;7419;52.184;5.944;2022-12-18T00:03:15;18.81;;;8.35;;
14663;SDS011;7419;52.184;5.944;2022-12-18T00:03:17;15.25;;;8.98;;
14663;SDS011;7419;52.184;5.944;2022-12-18T00:04:20;20.26;;;8.97;;
14663;SDS011;7419;52.184;5.944;2022-12-18T00:05:18;17.77;;;8.45;;
14663;SDS011;7419;52.184;5.944;2022-12-18T00:06:18;17.23;;;8.63;;
14663;SDS011;7419;52.184;5.944;2022-12-18T00:07:18;21.16;;;9.30;;
14663;SDS011;7419;52.184;5.944;2022-12-18T00:08:18;14.42;;;6.91;;
14663;SDS011;7419;52.184;5.944;2022-12-18T00:09:18;11.04;;;6.48;;
14663;SDS011;7419;52.184;5.944;2022-12-18T00:10:18;17.93;;;8.97;;
14663;SDS011;7419;52.184;5.944;2022-12-18T00:11:19;16.83;;;9.01;;
14663;SDS011;7419;52.184;5.944;2022-12-18T00:12:18;19.17;;;7.92;;
14663;SDS011;7419;52.184;5.944;2022-12-18T00:13:18;19.05;;;7.41;;
14663;SDS011;7419;52.184;5.944;2022-12-18T00:14:18;20.48;;;8.40;;
14663;SDS011;7419;52.184;5.944;2022-12-18T00:15:18;16.09;;;8.14;;
14663;SDS011;7419;52.184;5.944;2022-12-18T00:16:19;15.35;;;8.00;;
14663;SDS011;7419;52.184;5.944;2022-12-18T00:17:18;17.88;;;8.73;;
14663;SDS011;7419;52.184;5.944;2022-12-18T00:18:18;14.45;;;8.26;;
14663;SDS011;7419;52.184;5.944;2022-12-18T00:19:18;15.90;;;8.50;;
14663;SDS011;7419;52.184;5.944;2022-12-18T00:20:18;16.32;;;8.62;;
14663;SDS011;7419;52.184;5.944;2022-12-18T00:21:19;24.93;;;9.47;;
14663;SDS011;7419;52.184;5.944;2022-12-18T00:22:18;15.45;;;8.49;;
14663;SDS011;7419;52.184;5.944;2022-12-18T00:23:18;16.52;;;8.11;;
14663;SDS011;7419;52.184;5.944;2022-12-18T00:24:18;14.90;;;9.24;;
14663;SDS011;7419;52.184;5.944;2022-12-18T00:25:19;15.94;;;6.63;;
14663;SDS011;7419;52.184;5.944;2022-12-18T00:26:19;12.35;;;7.68;;
14663;SDS011;7419;52.184;5.944;2022-12-18T00:27:19;12.87;;;7.73;;
14663;SDS011;7419;52.184;5.944;2022-12-18T00:28:19;17.47;;;7.75;;
14663;SDS011;7419;52.184;5.944;2022-12-18T00:29:19;13.48;;;8.36;;
14663;SDS011;7419;52.184;5.944;2022-12-18T00:30:19;15.57;;;8.62;;
14663;SDS011;7419;52.184;5.944;2022-12-18T00:31:19;13.40;;;8.72;;
14663;SDS011;7419;52.184;5.944;2022-12-18T00:32:19;19.18;;;9.22;;
14663;SDS011;7419;52.184;5.944;2022-12-18T00:33:19;19.31;;;8.15;;
14663;SDS011;7419;52.184;5.944;2022-12-18T00:34:19;17.51;;;7.19;;
14663;SDS011;7419;52.184;5.944;2022-12-18T00:35:19;18.33;;;7.45;;
14663;SDS011;7419;52.184;5.944;2022-12-18T00:36:20;17.60;;;9.31;;
14663;SDS011;7419;52.184;5.944;2022-12-18T00:37:19;13.89;;;7.50;;
14663;SDS011;7419;52.184;5.944;2022-12-18T00:38:19;14.78;;;6.94;;
14663;SDS011;7419;52.184;5.944;2022-12-18T00:39:19;15.98;;;8.77;;
14663;SDS011;7419;52.184;5.944;2022-12-18T00:40:19;16.11;;;8.45;;
14663;SDS011;7419;52.184;5.944;2022-12-18T00:41:19;19.08;;;7.86;;
14663;SDS011;7419;52.184;5.944;2022-12-18T00:42:19;16.83;;;7.91;;
14663;SDS011;7419;52.184;5.944;2022-12-18T00:43:19;14.47;;;8.08;;
14663;SDS011;7419;52.184;5.944;2022-12-18T00:44:19;14.76;;;7.73;;
14663;SDS011;7419;52.184;5.944;2022-12-18T00:45:19;13.91;;;7.59;;
14663;SDS011;7419;52.184;5.944;2022-12-18T00:46:19;13.37;;;7.78;;
14663;SDS011;7419;52.184;5.944;2022-12-18T00:47:19;13.57;;;8.78;;
14663;SDS011;7419;52.184;5.944;2022-12-18T00:48:20;18.91;;;9.12;;
14663;SDS011;7419;52.184;5.944;2022-12-18T00:49:20;13.84;;;8.07;;
14663;SDS011;7419;52.184;5.944;2022-12-18T00:50:20;14.48;;;6.23;;
14663;SDS011;7419;52.184;5.944;2022-12-18T00:51:20;12.24;;;7.10;;
14663;SDS011;7419;52.184;5.944;2022-12-18T00:52:20;15.64;;;7.70;;
14663;SDS011;7419;52.184;5.944;2022-12-18T00:53:20;11.24;;;6.62;;
14663;SDS011;7419;52.184;5.944;2022-12-18T00:54:20;12.46;;;6.70;;
14663;SDS011;7419;52.184;5.944;2022-12-18T00:55:20;13.94;;;7.08;;
14663;SDS011;7419;52.184;5.944;2022-12-18T00:56:21;16.09;;;6.90;;
14663;SDS011;7419;52.184;5.944;2022-12-18T00:57:20;16.78;;;7.80;;
14663;SDS011;7419;52.184;5.944;2022-12-18T00:58:20;11.55;;;7.84;;
14663;SDS011;7419;52.184;5.944;2022-12-18T00:59:20;17.93;;;8.70;;
14663;SDS011;7419;52.184;5.944;2022-12-18T01:00:20;12.10;;;7.01;;
14663;SDS011;7419;52.184;5.944;2022-12-18T01:01:20;12.91;;;7.05;;
14663;SDS011;7419;52.184;5.944;2022-12-18T01:02:20;21.47;;;7.23;;
14663;SDS011;7419;52.184;5.944;2022-12-18T01:03:21;15.60;;;6.80;;
14663;SDS011;7419;52.184;5.944;2022-12-18T01:04:21;12.57;;;6.61;;
14663;SDS011;7419;52.184;5.944;2022-12-18T01:05:21;15.29;;;7.68;;
14663;SDS011;7419;52.184;5.944;2022-12-18T01:06:21;17.31;;;7.38;;
14663;SDS011;7419;52.184;5.944;2022-12-18T01:07:21;16.96;;;8.07;;
14663;SDS011;7419;52.184;5.944;2022-12-18T01:08:21;14.97;;;7.54;;
14663;SDS011;7419;52.184;5.944;2022-12-18T01:09:21;13.90;;;7.13;;
14663;SDS011;7419;52.184;5.944;2022-12-18T01:10:21;11.66;;;6.48;;
14663;SDS011;7419;52.184;5.944;2022-12-18T01:11:21;18.20;;;6.60;;
14663;SDS011;7419;52.184;5.944;2022-12-18T01:12:21;12.79;;;7.08;;
14663;SDS011;7419;52.184;5.944;2022-12-18T01:13:21;16.59;;;8.46;;
14663;SDS011;7419;52.184;5.944;2022-12-18T01:14:21;12.93;;;7.45;;
14663;SDS011;7419;52.184;5.944;2022-12-18T01:15:21;9.58;;;6.82;;
14663;SDS011;7419;52.184;5.944;2022-12-18T01:16:21;12.86;;;6.77;;
14663;SDS011;7419;52.184;5.944;2022-12-18T01:17:21;16.84;;;8.66;;
14663;SDS011;7419;52.184;5.944;2022-12-18T01:18:21;16.93;;;9.13;;
14663;SDS011;7419;52.184;5.944;2022-12-18T01:19:21;12.10;;;6.84;;
14663;SDS011;7419;52.184;5.944;2022-12-18T01:20:21;13.05;;;7.45;;
14663;SDS011;7419;52.184;5.944;2022-12-18T01:21:22;12.32;;;7.17;;
14663;SDS011;7419;52.184;5.944;2022-12-18T01:22:21;13.21;;;7.33;;
14663;SDS011;7419;52.184;5.944;2022-12-18T01:23:21;15.43;;;8.17;;
14663;SDS011;7419;52.184;5.944;2022-12-18T01:24:21;14.87;;;6.81;;
14663;SDS011;7419;52.184;5.944;2022-12-18T01:25:22;10.39;;;7.41;;
14663;SDS011;7419;52.184;5.944;2022-12-18T01:26:22;12.44;;;6.49;;
14663;SDS011;7419;52.184;5.944;2022-12-18T01:27:22;16.97;;;8.55;;
14663;SDS011;7419;52.184;5.944;2022-12-18T01:28:22;12.13;;;5.77;;
14663;SDS011;7419;52.184;5.944;2022-12-18T01:29:22;12.83;;;7.46;;
14663;SDS011;7419;52.184;5.944;2022-12-18T01:30:22;12.57;;;8.03;;
14663;SDS011;7419;52.184;5.944;2022-12-18T01:31:23;14.61;;;8.89;;
14663;SDS011;7419;52.184;5.944;2022-12-18T01:32:22;10.14;;;6.67;;
14663;SDS011;7419;52.184;5.944;2022-12-18T01:33:22;15.31;;;7.30;;
14663;SDS011;7419;52.184;5.944;2022-12-18T01:34:22;14.72;;;7.40;;
14663;SDS011;7419;52.184;5.944;2022-12-18T01:35:22;16.22;;;7.62;;
14663;SDS011;7419;52.184;5.944;2022-12-18T01:36:23;15.67;;;7.75;;
14663;SDS011;7419;52.184;5.944;2022-12-18T01:37:22;15.28;;;6.16;;
14663;SDS011;7419;52.184;5.944;2022-12-18T01:38:22;11.73;;;5.42;;
14663;SDS011;7419;52.184;5.944;2022-12-18T01:39:22;13.64;;;7.07;;
14663;SDS011;7419;52.184;5.944;2022-12-18T01:40:23;13.76;;;6.99;;
14663;SDS011;7419;52.184;5.944;2022-12-18T01:41:24;11.87;;;6.21;;
14663;SDS011;7419;52.184;5.944;2022-12-18T01:42:23;13.87;;;7.15;;
14663;SDS011;7419;52.184;5.944;2022-12-18T01:43:39;13.15;;;6.28;;
14663;SDS011;7419;52.184;5.944;2022-12-18T01:45:24;15.20;;;7.87;;
14663;SDS011;7419;52.184;5.944;2022-12-18T01:46:25;11.68;;;6.89;;
14663;SDS011;7419;52.184;5.944;2022-12-18T01:47:24;16.90;;;7.14;;
14663;SDS011;7419;52.184;5.944;2022-12-18T01:48:23;15.08;;;7.63;;
14663;SDS011;7419;52.184;5.944;2022-12-18T01:49:23;11.30;;;6.28;;
14663;SDS011;7419;52.184;5.944;2022-12-18T01:50:24;14.38;;;5.91;;
14663;SDS011;7419;52.184;5.944;2022-12-18T01:51:23;11.35;;;7.15;;
14663;SDS011;7419;52.184;5.944;2022-12-18T01:52:24;15.01;;;6.97;;
14663;SDS011;7419;52.184;5.944;2022-12-18T01:53:23;14.96;;;6.83;;
14663;SDS011;7419;52.184;5.944;2022-12-18T01:54:23;13.13;;;7.12;;
14663;SDS011;7419;52.184;5.944;2022-12-18T01:55:25;11.16;;;6.89;;
14663;SDS011;7419;52.184;5.944;2022-12-18T01:56:24;12.48;;;5.86;;
14663;SDS011;7419;52.184;5.944;2022-12-18T01:57:24;10.24;;;5.16;;
14663;SDS011;7419;52.184;5.944;2022-12-18T01:58:26;9.95;;;6.11;;
14663;SDS011;7419;52.184;5.944;2022-12-18T01:59:24;14.93;;;7.70;;
14663;SDS011;7419;52.184;5.944;2022-12-18T02:00:24;10.24;;;6.19;;
14663;SDS011;7419;52.184;5.944;2022-12-18T02:01:24;11.90;;;6.46;;
14663;SDS011;7419;52.184;5.944;2022-12-18T02:02:24;12.58;;;6.59;;
14663;SDS011;7419;52.184;5.944;2022-12-18T02:03:24;13.73;;;6.41;;
14663;SDS011;7419;52.184;5.944;2022-12-18T02:04:25;13.31;;;6.48;;
14663;SDS011;7419;52.184;5.944;2022-12-18T02:05:26;16.19;;;7.41;;
14663;SDS011;7419;52.184;5.944;2022-12-18T02:06:26;20.72;;;6.95;;
14663;SDS011;7419;52.184;5.944;2022-12-18T02:07:26;8.83;;;5.94;;
14663;SDS011;7419;52.184;5.944;2022-12-18T02:08:26;10.19;;;6.31;;
14663;SDS011;7419;52.184;5.944;2022-12-18T02:09:25;12.00;;;6.07;;
14663;SDS011;7419;52.184;5.944;2022-12-18T02:10:26;7.70;;;4.55;;
14663;SDS011;7419;52.184;5.944;2022-12-18T02:11:27;13.83;;;7.28;;
14663;SDS011;7419;52.184;5.944;2022-12-18T02:12:25;14.00;;;6.16;;
14663;SDS011;7419;52.184;5.944;2022-12-18T02:13:26;12.21;;;6.58;;
14663;SDS011;7419;52.184;5.944;2022-12-18T02:14:28;20.37;;;6.78;;
14663;SDS011;7419;52.184;5.944;2022-12-18T02:15:26;10.88;;;6.01;;
14663;SDS011;7419;52.184;5.944;2022-12-18T02:16:26;11.05;;;5.54;;
14663;SDS011;7419;52.184;5.944;2022-12-18T02:17:26;9.14;;;6.41;;
14663;SDS011;7419;52.184;5.944;2022-12-18T02:18:26;9.36;;;5.36;;
14663;SDS011;7419;52.184;5.944;2022-12-18T02:19:37;11.89;;;6.30;;
14663;SDS011;7419;52.184;5.944;2022-12-18T02:20:27;10.05;;;5.46;;
14663;SDS011;7419;52.184;5.944;2022-12-18T02:21:27;14.08;;;6.92;;
14663;SDS011;7419;52.184;5.944;2022-12-18T02:22:26;13.88;;;7.07;;
14663;SDS011;7419;52.184;5.944;2022-12-18T02:23:31;13.68;;;6.41;;
14663;SDS011;7419;52.184;5.944;2022-12-18T02:24:28;8.97;;;5.15;;
14663;SDS011;7419;52.184;5.944;2022-12-18T02:25:30;11.90;;;5.72;;
14663;SDS011;7419;52.184;5.944;2022-12-18T02:26:26;15.55;;;6.42;;
14663;SDS011;7419;52.184;5.944;2022-12-18T02:27:25;10.78;;;6.46;;
14663;SDS011;7419;52.184;5.944;2022-12-18T02:28:26;14.63;;;6.43;;
14663;SDS011;7419;52.184;5.944;2022-12-18T02:29:26;10.94;;;6.71;;
14663;SDS011;7419;52.184;5.944;2022-12-18T02:30:26;14.14;;;6.30;;
14663;SDS011;7419;52.184;5.944;2022-12-18T02:31:26;8.96;;;5.62;;
14663;SDS011;7419;52.184;5.944;2022-12-18T02:32:26;15.17;;;5.72;;
14663;SDS011;7419;52.184;5.944;2022-12-18T02:33:26;12.72;;;6.61;;
14663;SDS011;7419;52.184;5.944;2022-12-18T02:34:27;12.33;;;5.97;;
14663;SDS011;7419;52.184;5.944;2022-12-18T02:35:27;11.54;;;5.95;;
14663;SDS011;7419;52.184;5.944;2022-12-18T02:36:26;14.63;;;6.14;;
14663;SDS011;7419;52.184;5.944;2022-12-18T02:37:26;12.74;;;6.13;;
14663;SDS011;7419;52.184;5.944;2022-12-18T02:38:26;9.86;;;5.94;;
14663;SDS011;7419;52.184;5.944;2022-12-18T02:39:26;10.59;;;6.09;;
14663;SDS011;7419;52.184;5.944;2022-12-18T02:40:26;15.44;;;6.29;;
14663;SDS011;7419;52.184;5.944;2022-12-18T02:41:26;8.61;;;5.75;;
14663;SDS011;7419;52.184;5.944;2022-12-18T02:42:27;7.88;;;5.48;;
14663;SDS011;7419;52.184;5.944;2022-12-18T02:43:26;10.31;;;5.25;;
14663;SDS011;7419;52.184;5.944;2022-12-18T02:44:26;10.25;;;5.86;;
14663;SDS011;7419;52.184;5.944;2022-12-18T02:45:26;8.77;;;4.66;;
14663;SDS011;7419;52.184;5.944;2022-12-18T02:46:29;11.04;;;5.72;;
14663;SDS011;7419;52.184;5.944;2022-12-18T02:47:27;8.87;;;5.53;;
14663;SDS011;7419;52.184;5.944;2022-12-18T02:48:27;12.45;;;6.69;;
14663;SDS011;7419;52.184;5.944;2022-12-18T02:49:29;12.93;;;7.25;;
14663;SDS011;7419;52.184;5.944;2022-12-18T02:50:29;8.31;;;5.66;;
14663;SDS011;7419;52.184;5.944;2022-12-18T02:51:28;12.03;;;4.97;;
14663;SDS011;7419;52.184;5.944;2022-12-18T02:52:28;14.35;;;6.50;;
14663;SDS011;7419;52.184;5.944;2022-12-18T02:53:28;11.52;;;6.57;;
14663;SDS011;7419;52.184;5.944;2022-12-18T02:54:32;9.66;;;6.16;;
14663;SDS011;7419;52.184;5.944;2022-12-18T02:55:29;10.22;;;5.78;;
14663;SDS011;7419;52.184;5.944;2022-12-18T02:56:28;8.96;;;5.98;;
14663;SDS011;7419;52.184;5.944;2022-12-18T02:57:31;9.32;;;5.46;;
14663;SDS011;7419;52.184;5.944;2022-12-18T02:58:29;9.67;;;6.17;;
14663;SDS011;7419;52.184;5.944;2022-12-18T02:59:29;8.68;;;6.82;;
14663;SDS011;7419;52.184;5.944;2022-12-18T03:00:28;12.96;;;5.97;;
14663;SDS011;7419;52.184;5.944;2022-12-18T03:01:29;9.77;;;5.09;;
14663;SDS011;7419;52.184;5.944;2022-12-18T03:02:29;11.30;;;5.17;;
14663;SDS011;7419;52.184;5.944;2022-12-18T03:03:29;17.58;;;6.60;;
14663;SDS011;7419;52.184;5.944;2022-12-18T03:04:28;13.82;;;7.48;;
14663;SDS011;7419;52.184;5.944;2022-12-18T03:05:30;12.33;;;6.11;;
14663;SDS011;7419;52.184;5.944;2022-12-18T03:06:28;14.55;;;6.77;;
14663;SDS011;7419;52.184;5.944;2022-12-18T03:07:33;9.66;;;6.31;;
14663;SDS011;7419;52.184;5.944;2022-12-18T03:08:29;15.28;;;5.39;;
14663;SDS011;7419;52.184;5.944;2022-12-18T03:09:29;11.54;;;6.37;;
14663;SDS011;7419;52.184;5.944;2022-12-18T03:10:29;13.13;;;6.71;;
14663;SDS011;7419;52.184;5.944;2022-12-18T03:11:28;11.10;;;6.19;;
14663;SDS011;7419;52.184;5.944;2022-12-18T03:12:29;10.42;;;5.51;;
14663;SDS011;7419;52.184;5.944;2022-12-18T03:13:30;8.62;;;5.95;;
14663;SDS011;7419;52.184;5.944;2022-12-18T03:14:29;7.09;;;3.86;;
14663;SDS011;7419;52.184;5.944;2022-12-18T03:15:29;10.47;;;5.35;;
14663;SDS011;7419;52.184;5.944;2022-12-18T03:16:28;11.57;;;6.55;;
14663;SDS011;7419;52.184;5.944;2022-12-18T03:17:29;14.05;;;5.69;;
14663;SDS011;7419;52.184;5.944;2022-12-18T03:18:30;8.39;;;6.40;;
14663;SDS011;7419;52.184;5.944;2022-12-18T03:19:29;12.60;;;6.21;;
14663;SDS011;7419;52.184;5.944;2022-12-18T03:20:29;8.02;;;5.46;;
14663;SDS011;7419;52.184;5.944;2022-12-18T03:21:29;8.69;;;5.45;;
14663;SDS011;7419;52.184;5.944;2022-12-18T03:22:29;11.55;;;4.65;;
14663;SDS011;7419;52.184;5.944;2022-12-18T03:23:29;11.21;;;5.72;;
14663;SDS011;7419;52.184;5.944;2022-12-18T03:24:29;5.97;;;4.86;;
14663;SDS011;7419;52.184;5.944;2022-12-18T03:25:29;10.55;;;5.12;;
14663;SDS011;7419;52.184;5.944;2022-12-18T03:26:29;9.91;;;5.83;;
14663;SDS011;7419;52.184;5.944;2022-12-18T03:27:29;10.56;;;4.99;;
14663;SDS011;7419;52.184;5.944;2022-12-18T03:28:29;9.74;;;5.63;;
14663;SDS011;7419;52.184;5.944;2022-12-18T03:29:30;14.43;;;6.40;;
14663;SDS011;7419;52.184;5.944;2022-12-18T03:30:29;8.62;;;5.13;;
14663;SDS011;7419;52.184;5.944;2022-12-18T03:31:29;11.06;;;5.72;;
14663;SDS011;7419;52.184;5.944;2022-12-18T03:32:30;6.24;;;5.20;;
14663;SDS011;7419;52.184;5.944;2022-12-18T03:33:29;8.76;;;5.27;;
14663;SDS011;7419;52.184;5.944;2022-12-18T03:34:30;10.56;;;5.37;;
14663;SDS011;7419;52.184;5.944;2022-12-18T03:35:30;9.98;;;5.45;;
14663;SDS011;7419;52.184;5.944;2022-12-18T03:36:30;9.26;;;4.71;;
14663;SDS011;7419;52.184;5.944;2022-12-18T03:37:30;9.55;;;6.20;;
14663;SDS011;7419;52.184;5.944;2022-12-18T03:38:29;9.04;;;4.94;;
14663;SDS011;7419;52.184;5.944;2022-12-18T03:39:29;11.89;;;5.91;;
14663;SDS011;7419;52.184;5.944;2022-12-18T03:40:31;8.65;;;5.65;;
14663;SDS011;7419;52.184;5.944;2022-12-18T03:41:30;6.47;;;5.15;;
14663;SDS011;7419;52.184;5.944;2022-12-18T03:42:31;8.80;;;5.95;;
14663;SDS011;7419;52.184;5.944;2022-12-18T03:43:34;8.33;;;4.90;;
14663;SDS011;7419;52.184;5.944;2022-12-18T03:44:31;5.44;;;4.64;;
14663;SDS011;7419;52.184;5.944;2022-12-18T03:45:31;8.53;;;5.15;;
14663;SDS011;7419;52.184;5.944;2022-12-18T03:46:32;8.70;;;4.58;;
14663;SDS011;7419;52.184;5.944;2022-12-18T03:47:31;7.57;;;5.66;;
14663;SDS011;7419;52.184;5.944;2022-12-18T03:48:31;5.51;;;4.63;;
14663;SDS011;7419;52.184;5.944;2022-12-18T03:49:32;10.10;;;5.61;;
14663;SDS011;7419;52.184;5.944;2022-12-18T03:50:34;6.04;;;4.28;;
14663;SDS011;7419;52.184;5.944;2022-12-18T03:51:32;10.39;;;4.63;;
14663;SDS011;7419;52.184;5.944;2022-12-18T03:52:31;11.53;;;5.78;;
14663;SDS011;7419;52.184;5.944;2022-12-18T03:53:32;8.66;;;4.19;;
14663;SDS011;7419;52.184;5.944;2022-12-18T03:54:30;6.60;;;4.26;;
14663;SDS011;7419;52.184;5.944;2022-12-18T03:55:31;7.48;;;5.03;;
14663;SDS011;7419;52.184;5.944;2022-12-18T03:56:31;5.47;;;3.78;;
14663;SDS011;7419;52.184;5.944;2022-12-18T03:57:31;8.12;;;5.05;;
14663;SDS011;7419;52.184;5.944;2022-12-18T03:58:31;10.97;;;5.06;;
14663;SDS011;7419;52.184;5.944;2022-12-18T03:59:31;9.18;;;5.48;;
14663;SDS011;7419;52.184;5.944;2022-12-18T04:00:31;8.58;;;4.67;;
14663;SDS011;7419;52.184;5.944;2022-12-18T04:01:31;8.27;;;4.73;;
14663;SDS011;7419;52.184;5.944;2022-12-18T04:02:31;8.33;;;3.89;;
14663;SDS011;7419;52.184;5.944;2022-12-18T04:03:31;10.06;;;5.37;;
14663;SDS011;7419;52.184;5.944;2022-12-18T04:04:31;7.97;;;4.73;;
14663;SDS011;7419;52.184;5.944;2022-12-18T04:05:31;9.37;;;4.39;;
14663;SDS011;7419;52.184;5.944;2022-12-18T04:06:35;6.59;;;4.42;;
14663;SDS011;7419;52.184;5.944;2022-12-18T04:07:31;11.27;;;5.29;;
14663;SDS011;7419;52.184;5.944;2022-12-18T04:08:31;7.93;;;4.64;;
14663;SDS011;7419;52.184;5.944;2022-12-18T04:09:31;8.06;;;4.39;;
14663;SDS011;7419;52.184;5.944;2022-12-18T04:10:31;4.88;;;3.63;;
14663;SDS011;7419;52.184;5.944;2022-12-18T04:11:31;10.08;;;4.76;;
14663;SDS011;7419;52.184;5.944;2022-12-18T04:12:31;7.56;;;4.83;;
14663;SDS011;7419;52.184;5.944;2022-12-18T04:13:33;9.83;;;4.79;;
14663;SDS011;7419;52.184;5.944;2022-12-18T04:14:32;10.40;;;5.43;;
14663;SDS011;7419;52.184;5.944;2022-12-18T04:15:32;10.22;;;4.28;;
14663;SDS011;7419;52.184;5.944;2022-12-18T04:16:32;12.03;;;5.23;;
14663;SDS011;7419;52.184;5.944;2022-12-18T04:17:32;7.87;;;3.84;;
14663;SDS011;7419;52.184;5.944;2022-12-18T04:18:32;10.24;;;4.44;;
14663;SDS011;7419;52.184;5.944;2022-12-18T04:19:32;7.95;;;4.34;;
14663;SDS011;7419;52.184;5.944;2022-12-18T04:20:32;8.74;;;4.66;;
14663;SDS011;7419;52.184;5.944;2022-12-18T04:21:32;12.08;;;5.74;;
14663;SDS011;7419;52.184;5.944;2022-12-18T04:22:32;8.94;;;4.37;;
14663;SDS011;7419;52.184;5.944;2022-12-18T04:23:32;9.80;;;4.35;;
14663;SDS011;7419;52.184;5.944;2022-12-18T04:24:32;8.78;;;5.03;;
14663;SDS011;7419;52.184;5.944;2022-12-18T04:25:32;12.21;;;5.30;;
14663;SDS011;7419;52.184;5.944;2022-12-18T04:26:32;7.90;;;5.51;;
14663;SDS011;7419;52.184;5.944;2022-12-18T04:27:32;5.93;;;4.36;;
14663;SDS011;7419;52.184;5.944;2022-12-18T04:28:32;10.26;;;5.36;;
14663;SDS011;7419;52.184;5.944;2022-12-18T04:29:32;7.67;;;4.62;;
14663;SDS011;7419;52.184;5.944;2022-12-18T04:30:32;8.67;;;4.91;;
14663;SDS011;7419;52.184;5.944;2022-12-18T04:31:32;9.18;;;5.00;;
14663;SDS011;7419;52.184;5.944;2022-12-18T04:32:33;9.38;;;5.30;;
14663;SDS011;7419;52.184;5.944;2022-12-18T04:33:33;8.28;;;4.23;;
14663;SDS011;7419;52.184;5.944;2022-12-18T04:34:33;9.66;;;5.02;;
14663;SDS011;7419;52.184;5.944;2022-12-18T04:35:33;9.70;;;5.31;;
14663;SDS011;7419;52.184;5.944;2022-12-18T04:36:33;9.68;;;4.00;;
14663;SDS011;7419;52.184;5.944;2022-12-18T04:37:33;9.88;;;6.03;;
14663;SDS011;7419;52.184;5.944;2022-12-18T04:38:33;8.46;;;4.54;;
14663;SDS011;7419;52.184;5.944;2022-12-18T04:39:33;14.28;;;5.99;;
14663;SDS011;7419;52.184;5.944;2022-12-18T04:40:34;9.72;;;4.67;;
14663;SDS011;7419;52.184;5.944;2022-12-18T04:41:33;8.95;;;6.00;;
14663;SDS011;7419;52.184;5.944;2022-12-18T04:42:33;9.04;;;4.29;;
14663;SDS011;7419;52.184;5.944;2022-12-18T04:43:33;8.92;;;5.85;;
14663;SDS011;7419;52.184;5.944;2022-12-18T04:44:33;7.76;;;4.91;;
14663;SDS011;7419;52.184;5.944;2022-12-18T04:45:33;11.37;;;3.52;;
14663;SDS011;7419;52.184;5.944;2022-12-18T04:46:33;14.33;;;5.66;;
14663;SDS011;7419;52.184;5.944;2022-12-18T04:47:34;9.61;;;3.58;;
14663;SDS011;7419;52.184;5.944;2022-12-18T04:48:36;6.97;;;4.18;;
14663;SDS011;7419;52.184;5.944;2022-12-18T04:49:34;7.05;;;4.62;;
14663;SDS011;7419;52.184;5.944;2022-12-18T04:50:34;5.68;;;3.23;;
14663;SDS011;7419;52.184;5.944;2022-12-18T04:51:34;6.12;;;3.74;;
14663;SDS011;7419;52.184;5.944;2022-12-18T04:52:34;11.00;;;5.46;;
14663;SDS011;7419;52.184;5.944;2022-12-18T04:53:34;8.30;;;4.31;;
14663;SDS011;7419;52.184;5.944;2022-12-18T04:54:34;8.95;;;3.57;;
14663;SDS011;7419;52.184;5.944;2022-12-18T04:55:34;8.35;;;3.84;;
14663;SDS011;7419;52.184;5.944;2022-12-18T04:56:34;5.93;;;3.33;;
14663;SDS011;7419;52.184;5.944;2022-12-18T04:57:34;11.86;;;4.87;;
14663;SDS011;7419;52.184;5.944;2022-12-18T04:58:34;8.67;;;5.85;;
14663;SDS011;7419;52.184;5.944;2022-12-18T04:59:34;7.99;;;4.11;;
14663;SDS011;7419;52.184;5.944;2022-12-18T05:00:34;7.08;;;4.12;;
14663;SDS011;7419;52.184;5.944;2022-12-18T05:01:34;8.41;;;4.95;;
14663;SDS011;7419;52.184;5.944;2022-12-18T05:02:34;8.15;;;5.05;;
14663;SDS011;7419;52.184;5.944;2022-12-18T05:03:35;6.84;;;4.11;;
14663;SDS011;7419;52.184;5.944;2022-12-18T05:04:35;7.24;;;4.10;;
14663;SDS011;7419;52.184;5.944;2022-12-18T05:05:35;5.42;;;4.31;;
14663;SDS011;7419;52.184;5.944;2022-12-18T05:06:35;9.65;;;5.11;;
14663;SDS011;7419;52.184;5.944;2022-12-18T05:07:35;9.68;;;5.45;;
14663;SDS011;7419;52.184;5.944;2022-12-18T05:08:35;7.52;;;4.54;;
14663;SDS011;7419;52.184;5.944;2022-12-18T05:09:35;6.38;;;4.39;;
14663;SDS011;7419;52.184;5.944;2022-12-18T05:10:35;8.28;;;4.47;;
14663;SDS011;7419;52.184;5.944;2022-12-18T05:11:35;8.42;;;3.83;;
14663;SDS011;7419;52.184;5.944;2022-12-18T05:12:35;6.60;;;3.38;;
14663;SDS011;7419;52.184;5.944;2022-12-18T05:13:35;8.60;;;4.19;;
14663;SDS011;7419;52.184;5.944;2022-12-18T05:14:35;6.56;;;4.31;;
14663;SDS011;7419;52.184;5.944;2022-12-18T05:15:35;4.81;;;3.45;;
14663;SDS011;7419;52.184;5.944;2022-12-18T05:16:35;6.95;;;4.85;;
14663;SDS011;7419;52.184;5.944;2022-12-18T05:17:35;5.89;;;4.09;;
14663;SDS011;7419;52.184;5.944;2022-12-18T05:18:36;11.45;;;4.25;;
14663;SDS011;7419;52.184;5.944;2022-12-18T05:19:39;7.90;;;3.58;;
14663;SDS011;7419;52.184;5.944;2022-12-18T05:20:36;8.77;;;4.72;;
14663;SDS011;7419;52.184;5.944;2022-12-18T05:21:36;9.91;;;5.18;;
14663;SDS011;7419;52.184;5.944;2022-12-18T05:22:36;5.59;;;4.05;;
14663;SDS011;7419;52.184;5.944;2022-12-18T05:23:36;5.30;;;3.86;;
14663;SDS011;7419;52.184;5.944;2022-12-18T05:24:36;9.23;;;4.28;;
14663;SDS011;7419;52.184;5.944;2022-12-18T05:25:36;4.95;;;3.47;;
14663;SDS011;7419;52.184;5.944;2022-12-18T05:26:36;6.57;;;4.42;;
14663;SDS011;7419;52.184;5.944;2022-12-18T05:27:36;5.47;;;2.77;;
14663;SDS011;7419;52.184;5.944;2022-12-18T05:28:36;5.05;;;3.97;;
14663;SDS011;7419;52.184;5.944;2022-12-18T05:29:36;4.77;;;3.24;;
14663;SDS011;7419;52.184;5.944;2022-12-18T05:30:36;8.38;;;3.53;;
14663;SDS011;7419;52.184;5.944;2022-12-18T05:31:36;5.26;;;2.95;;
14663;SDS011;7419;52.184;5.944;2022-12-18T05:32:36;5.78;;;3.47;;
14663;SDS011;7419;52.184;5.944;2022-12-18T05:33:37;7.66;;;3.91;;
14663;SDS011;7419;52.184;5.944;2022-12-18T05:34:36;7.40;;;3.72;;
14663;SDS011;7419;52.184;5.944;2022-12-18T05:35:36;5.41;;;4.17;;
14663;SDS011;7419;52.184;5.944;2022-12-18T05:36:37;5.47;;;3.22;;
14663;SDS011;7419;52.184;5.944;2022-12-18T05:37:37;5.69;;;4.16;;
14663;SDS011;7419;52.184;5.944;2022-12-18T05:38:37;7.45;;;4.77;;
14663;SDS011;7419;52.184;5.944;2022-12-18T05:39:37;7.05;;;3.93;;
14663;SDS011;7419;52.184;5.944;2022-12-18T05:40:37;4.43;;;3.42;;
14663;SDS011;7419;52.184;5.944;2022-12-18T05:41:37;7.05;;;4.84;;
14663;SDS011;7419;52.184;5.944;2022-12-18T05:42:37;9.00;;;4.33;;
14663;SDS011;7419;52.184;5.944;2022-12-18T05:43:38;8.08;;;4.29;;
14663;SDS011;7419;52.184;5.944;2022-12-18T05:44:37;5.10;;;3.31;;
14663;SDS011;7419;52.184;5.944;2022-12-18T05:45:37;7.81;;;3.61;;
14663;SDS011;7419;52.184;5.944;2022-12-18T05:46:40;8.26;;;4.44;;
14663;SDS011;7419;52.184;5.944;2022-12-18T05:47:37;5.81;;;3.37;;
14663;SDS011;7419;52.184;5.944;2022-12-18T05:48:37;8.08;;;4.14;;
14663;SDS011;7419;52.184;5.944;2022-12-18T05:49:37;8.00;;;4.68;;
14663;SDS011;7419;52.184;5.944;2022-12-18T05:50:38;5.62;;;2.86;;
14663;SDS011;7419;52.184;5.944;2022-12-18T05:51:37;4.88;;;4.35;;
14663;SDS011;7419;52.184;5.944;2022-12-18T05:52:37;7.21;;;3.88;;
14663;SDS011;7419;52.184;5.944;2022-12-18T05:53:38;5.09;;;4.27;;
14663;SDS011;7419;52.184;5.944;2022-12-18T05:54:38;9.77;;;4.02;;
14663;SDS011;7419;52.184;5.944;2022-12-18T05:55:38;7.66;;;4.37;;
14663;SDS011;7419;52.184;5.944;2022-12-18T05:56:38;5.68;;;2.80;;
14663;SDS011;7419;52.184;5.944;2022-12-18T05:57:38;8.51;;;4.21;;
14663;SDS011;7419;52.184;5.944;2022-12-18T05:58:38;5.42;;;3.39;;
14663;SDS011;7419;52.184;5.944;2022-12-18T05:59:38;8.37;;;3.83;;
14663;SDS011;7419;52.184;5.944;2022-12-18T06:00:39;5.85;;;4.13;;
14663;SDS011;7419;52.184;5.944;2022-12-18T06:01:38;5.02;;;3.55;;
14663;SDS011;7419;52.184;5.944;2022-12-18T06:02:38;4.18;;;3.74;;
14663;SDS011;7419;52.184;5.944;2022-12-18T06:03:38;6.04;;;3.87;;
14663;SDS011;7419;52.184;5.944;2022-12-18T06:04:38;3.57;;;3.21;;
14663;SDS011;7419;52.184;5.944;2022-12-18T06:05:39;5.32;;;3.75;;